sensor_id;sensor_type;location;lat;lon;timestamp;P1;durP1;ratioP1;P2;durP2;ratioP2
57113;SDS011;42994;51.606;9.988;2023-03-01T00:01:36;19.27;;;10.85;;
57113;SDS011;42994;51.606;9.988;2023-03-01T00:04:02;20.75;;;10.82;;
57113;SDS011;42994;51.606;9.988;2023-03-01T00:06:29;21.17;;;11.30;;
57113;SDS011;42994;51.606;9.988;2023-03-01T00:08:56;15.02;;;9.90;;
57113;SDS011;42994;51.606;9.988;2023-03-01T00:11:23;17.45;;;9.57;;
57113;SDS011;42994;51.606;9.988;2023-03-01T00:13:53;19.52;;;10.23;;
57113;SDS011;42994;51.606;9.988;2023-03-01T00:16:22;14.20;;;9.20;;
57113;SDS011;42994;51.606;9.988;2023-03-01T00:18:49;17.60;;;10.00;;
57113;SDS011;42994;51.606;9.988;2023-03-01T00:21:16;16.00;;;9.50;;
57113;SDS011;42994;51.606;9.988;2023-03-01T00:23:43;17.35;;;10.85;;
57113;SDS011;42994;51.606;9.988;2023-03-01T00:26:11;16.83;;;8.82;;
57113;SDS011;42994;51.606;9.988;2023-03-01T00:28:39;16.55;;;9.18;;
57113;SDS011;42994;51.606;9.988;2023-03-01T00:31:09;14.98;;;8.38;;
57113;SDS011;42994;51.606;9.988;2023-03-01T00:33:37;12.07;;;8.52;;
57113;SDS011;42994;51.606;9.988;2023-03-01T00:36:04;16.23;;;9.68;;
57113;SDS011;42994;51.606;9.988;2023-03-01T00:38:34;16.02;;;9.02;;
57113;SDS011;42994;51.606;9.988;2023-03-01T00:41:04;14.52;;;8.63;;
57113;SDS011;42994;51.606;9.988;2023-03-01T00:43:32;14.45;;;9.50;;
57113;SDS011;42994;51.606;9.988;2023-03-01T00:46:01;20.08;;;9.05;;
57113;SDS011;42994;51.606;9.988;2023-03-01T00:48:30;18.27;;;9.57;;
57113;SDS011;42994;51.606;9.988;2023-03-01T00:50:57;15.65;;;9.15;;
57113;SDS011;42994;51.606;9.988;2023-03-01T00:53:23;18.73;;;10.05;;
57113;SDS011;42994;51.606;9.988;2023-03-01T00:55:50;19.65;;;9.68;;
57113;SDS011;42994;51.606;9.988;2023-03-01T00:58:16;22.60;;;10.02;;
57113;SDS011;42994;51.606;9.988;2023-03-01T01:00:43;16.60;;;9.73;;
57113;SDS011;42994;51.606;9.988;2023-03-01T01:03:10;15.63;;;8.30;;
57113;SDS011;42994;51.606;9.988;2023-03-01T01:05:38;12.85;;;8.00;;
57113;SDS011;42994;51.606;9.988;2023-03-01T01:08:04;15.10;;;8.82;;
57113;SDS011;42994;51.606;9.988;2023-03-01T01:10:33;17.10;;;9.13;;
57113;SDS011;42994;51.606;9.988;2023-03-01T01:13:00;21.08;;;8.85;;
57113;SDS011;42994;51.606;9.988;2023-03-01T01:15:26;17.00;;;8.65;;
57113;SDS011;42994;51.606;9.988;2023-03-01T01:17:53;14.93;;;8.93;;
57113;SDS011;42994;51.606;9.988;2023-03-01T01:20:20;21.52;;;11.23;;
57113;SDS011;42994;51.606;9.988;2023-03-01T01:22:48;27.27;;;11.40;;
57113;SDS011;42994;51.606;9.988;2023-03-01T01:25:16;20.08;;;12.77;;
57113;SDS011;42994;51.606;9.988;2023-03-01T01:27:42;21.77;;;11.38;;
57113;SDS011;42994;51.606;9.988;2023-03-01T01:30:10;24.40;;;12.05;;
57113;SDS011;42994;51.606;9.988;2023-03-01T01:32:37;20.08;;;11.35;;
57113;SDS011;42994;51.606;9.988;2023-03-01T01:35:04;18.13;;;10.45;;
57113;SDS011;42994;51.606;9.988;2023-03-01T01:37:31;21.70;;;10.20;;
57113;SDS011;42994;51.606;9.988;2023-03-01T01:39:59;20.23;;;10.48;;
57113;SDS011;42994;51.606;9.988;2023-03-01T01:42:29;20.58;;;10.02;;
57113;SDS011;42994;51.606;9.988;2023-03-01T01:45:24;15.68;;;8.98;;
57113;SDS011;42994;51.606;9.988;2023-03-01T01:47:54;27.50;;;10.65;;
57113;SDS011;42994;51.606;9.988;2023-03-01T01:50:23;18.27;;;9.60;;
57113;SDS011;42994;51.606;9.988;2023-03-01T01:52:50;17.48;;;8.80;;
57113;SDS011;42994;51.606;9.988;2023-03-01T01:55:21;22.83;;;11.30;;
57113;SDS011;42994;51.606;9.988;2023-03-01T01:57:53;17.23;;;10.30;;
57113;SDS011;42994;51.606;9.988;2023-03-01T02:00:23;17.80;;;9.10;;
57113;SDS011;42994;51.606;9.988;2023-03-01T02:02:55;17.13;;;8.60;;
57113;SDS011;42994;51.606;9.988;2023-03-01T02:05:25;16.00;;;8.95;;
57113;SDS011;42994;51.606;9.988;2023-03-01T02:07:54;16.17;;;7.68;;
57113;SDS011;42994;51.606;9.988;2023-03-01T02:10:24;13.90;;;7.47;;
57113;SDS011;42994;51.606;9.988;2023-03-01T02:12:53;15.20;;;8.82;;
57113;SDS011;42994;51.606;9.988;2023-03-01T02:15:21;15.82;;;8.65;;
57113;SDS011;42994;51.606;9.988;2023-03-01T02:17:48;18.15;;;10.50;;
57113;SDS011;42994;51.606;9.988;2023-03-01T02:20:16;15.32;;;8.73;;
57113;SDS011;42994;51.606;9.988;2023-03-01T02:22:52;21.85;;;10.90;;
57113;SDS011;42994;51.606;9.988;2023-03-01T02:25:24;19.13;;;10.07;;
57113;SDS011;42994;51.606;9.988;2023-03-01T02:27:54;21.25;;;10.13;;
57113;SDS011;42994;51.606;9.988;2023-03-01T02:30:32;17.88;;;9.05;;
57113;SDS011;42994;51.606;9.988;2023-03-01T02:32:59;18.88;;;8.88;;
57113;SDS011;42994;51.606;9.988;2023-03-01T02:35:28;16.67;;;8.93;;
57113;SDS011;42994;51.606;9.988;2023-03-01T02:37:56;18.63;;;9.73;;
57113;SDS011;42994;51.606;9.988;2023-03-01T02:40:25;18.52;;;9.65;;
57113;SDS011;42994;51.606;9.988;2023-03-01T02:42:55;18.15;;;9.05;;
57113;SDS011;42994;51.606;9.988;2023-03-01T02:45:25;18.67;;;10.57;;
57113;SDS011;42994;51.606;9.988;2023-03-01T02:47:54;19.00;;;11.13;;
57113;SDS011;42994;51.606;9.988;2023-03-01T02:50:24;19.35;;;10.68;;
57113;SDS011;42994;51.606;9.988;2023-03-01T02:53:07;18.85;;;9.95;;
57113;SDS011;42994;51.606;9.988;2023-03-01T02:55:37;19.33;;;10.38;;
57113;SDS011;42994;51.606;9.988;2023-03-01T02:58:04;24.70;;;11.50;;
57113;SDS011;42994;51.606;9.988;2023-03-01T03:00:34;22.17;;;11.20;;
57113;SDS011;42994;51.606;9.988;2023-03-01T03:03:06;16.95;;;9.63;;
57113;SDS011;42994;51.606;9.988;2023-03-01T03:05:34;16.65;;;9.57;;
57113;SDS011;42994;51.606;9.988;2023-03-01T03:08:01;15.65;;;9.07;;
57113;SDS011;42994;51.606;9.988;2023-03-01T03:10:34;18.17;;;9.60;;
57113;SDS011;42994;51.606;9.988;2023-03-01T03:13:05;19.15;;;9.85;;
57113;SDS011;42994;51.606;9.988;2023-03-01T03:15:34;29.08;;;11.75;;
57113;SDS011;42994;51.606;9.988;2023-03-01T03:18:02;25.40;;;11.27;;
57113;SDS011;42994;51.606;9.988;2023-03-01T03:20:31;24.75;;;12.40;;
57113;SDS011;42994;51.606;9.988;2023-03-01T03:22:59;18.42;;;10.32;;
57113;SDS011;42994;51.606;9.988;2023-03-01T03:25:26;20.58;;;11.05;;
57113;SDS011;42994;51.606;9.988;2023-03-01T03:27:55;22.63;;;11.93;;
57113;SDS011;42994;51.606;9.988;2023-03-01T03:30:24;18.85;;;11.23;;
57113;SDS011;42994;51.606;9.988;2023-03-01T03:32:51;21.35;;;11.63;;
57113;SDS011;42994;51.606;9.988;2023-03-01T03:35:19;23.48;;;11.48;;
57113;SDS011;42994;51.606;9.988;2023-03-01T03:37:48;28.70;;;10.68;;
57113;SDS011;42994;51.606;9.988;2023-03-01T03:40:32;22.73;;;11.43;;
57113;SDS011;42994;51.606;9.988;2023-03-01T03:43:00;22.42;;;11.13;;
57113;SDS011;42994;51.606;9.988;2023-03-01T03:45:27;22.83;;;11.98;;
57113;SDS011;42994;51.606;9.988;2023-03-01T03:47:54;21.70;;;11.90;;
57113;SDS011;42994;51.606;9.988;2023-03-01T03:50:20;23.45;;;11.55;;
57113;SDS011;42994;51.606;9.988;2023-03-01T03:52:48;27.90;;;12.73;;
57113;SDS011;42994;51.606;9.988;2023-03-01T03:55:15;24.92;;;11.40;;
57113;SDS011;42994;51.606;9.988;2023-03-01T03:57:45;20.35;;;10.88;;
57113;SDS011;42994;51.606;9.988;2023-03-01T04:00:17;29.23;;;10.70;;
57113;SDS011;42994;51.606;9.988;2023-03-01T04:02:45;30.10;;;11.93;;
57113;SDS011;42994;51.606;9.988;2023-03-01T04:05:13;20.70;;;10.38;;
57113;SDS011;42994;51.606;9.988;2023-03-01T04:07:42;27.00;;;10.40;;
57113;SDS011;42994;51.606;9.988;2023-03-01T04:10:11;21.45;;;10.60;;
57113;SDS011;42994;51.606;9.988;2023-03-01T04:12:39;18.17;;;9.32;;
57113;SDS011;42994;51.606;9.988;2023-03-01T04:15:08;15.27;;;9.70;;
57113;SDS011;42994;51.606;9.988;2023-03-01T04:17:38;22.50;;;9.52;;
57113;SDS011;42994;51.606;9.988;2023-03-01T04:20:07;18.63;;;8.85;;
57113;SDS011;42994;51.606;9.988;2023-03-01T04:22:36;17.08;;;9.88;;
57113;SDS011;42994;51.606;9.988;2023-03-01T04:25:03;17.65;;;9.73;;
57113;SDS011;42994;51.606;9.988;2023-03-01T04:27:33;24.83;;;11.40;;
57113;SDS011;42994;51.606;9.988;2023-03-01T04:29:59;14.85;;;8.85;;
57113;SDS011;42994;51.606;9.988;2023-03-01T04:32:26;17.65;;;10.38;;
57113;SDS011;42994;51.606;9.988;2023-03-01T04:34:53;22.40;;;10.05;;
57113;SDS011;42994;51.606;9.988;2023-03-01T04:37:20;25.55;;;10.98;;
57113;SDS011;42994;51.606;9.988;2023-03-01T04:39:46;21.80;;;11.05;;
57113;SDS011;42994;51.606;9.988;2023-03-01T04:42:13;21.55;;;11.95;;
57113;SDS011;42994;51.606;9.988;2023-03-01T04:44:41;25.23;;;10.48;;
57113;SDS011;42994;51.606;9.988;2023-03-01T04:47:08;23.30;;;11.05;;
57113;SDS011;42994;51.606;9.988;2023-03-01T04:49:35;23.13;;;11.10;;
57113;SDS011;42994;51.606;9.988;2023-03-01T04:52:01;20.40;;;10.20;;
57113;SDS011;42994;51.606;9.988;2023-03-01T04:54:29;21.10;;;9.85;;
57113;SDS011;42994;51.606;9.988;2023-03-01T04:56:56;18.08;;;9.57;;
57113;SDS011;42994;51.606;9.988;2023-03-01T04:59:23;20.40;;;9.80;;
57113;SDS011;42994;51.606;9.988;2023-03-01T05:01:51;22.08;;;9.82;;
57113;SDS011;42994;51.606;9.988;2023-03-01T05:04:20;18.45;;;9.98;;
57113;SDS011;42994;51.606;9.988;2023-03-01T05:06:47;19.00;;;10.73;;
57113;SDS011;42994;51.606;9.988;2023-03-01T05:09:14;22.30;;;10.60;;
57113;SDS011;42994;51.606;9.988;2023-03-01T05:11:41;17.45;;;9.55;;
57113;SDS011;42994;51.606;9.988;2023-03-01T05:14:08;16.05;;;9.50;;
57113;SDS011;42994;51.606;9.988;2023-03-01T05:16:35;21.90;;;10.43;;
57113;SDS011;42994;51.606;9.988;2023-03-01T05:19:04;22.02;;;10.50;;
57113;SDS011;42994;51.606;9.988;2023-03-01T05:21:36;22.90;;;11.20;;
57113;SDS011;42994;51.606;9.988;2023-03-01T05:24:23;19.63;;;9.93;;
57113;SDS011;42994;51.606;9.988;2023-03-01T05:26:50;20.92;;;9.98;;
57113;SDS011;42994;51.606;9.988;2023-03-01T05:29:18;21.08;;;8.88;;
57113;SDS011;42994;51.606;9.988;2023-03-01T05:31:50;18.80;;;10.63;;
57113;SDS011;42994;51.606;9.988;2023-03-01T05:34:18;16.77;;;8.85;;
57113;SDS011;42994;51.606;9.988;2023-03-01T05:36:48;18.00;;;9.00;;
57113;SDS011;42994;51.606;9.988;2023-03-01T05:39:18;23.73;;;10.23;;
57113;SDS011;42994;51.606;9.988;2023-03-01T05:41:46;21.98;;;10.05;;
57113;SDS011;42994;51.606;9.988;2023-03-01T05:44:12;17.63;;;9.80;;
57113;SDS011;42994;51.606;9.988;2023-03-01T05:46:39;19.52;;;10.38;;
57113;SDS011;42994;51.606;9.988;2023-03-01T05:49:05;16.30;;;9.50;;
57113;SDS011;42994;51.606;9.988;2023-03-01T05:51:33;16.85;;;9.55;;
57113;SDS011;42994;51.606;9.988;2023-03-01T05:54:00;17.40;;;9.18;;
57113;SDS011;42994;51.606;9.988;2023-03-01T05:56:27;19.48;;;9.85;;
57113;SDS011;42994;51.606;9.988;2023-03-01T05:58:54;20.77;;;10.35;;
57113;SDS011;42994;51.606;9.988;2023-03-01T06:01:20;21.05;;;9.65;;
57113;SDS011;42994;51.606;9.988;2023-03-01T06:03:47;21.23;;;9.88;;
57113;SDS011;42994;51.606;9.988;2023-03-01T06:06:14;18.13;;;9.93;;
57113;SDS011;42994;51.606;9.988;2023-03-01T06:08:41;15.60;;;8.80;;
57113;SDS011;42994;51.606;9.988;2023-03-01T06:11:08;21.77;;;10.45;;
57113;SDS011;42994;51.606;9.988;2023-03-01T06:13:35;19.98;;;10.35;;
57113;SDS011;42994;51.606;9.988;2023-03-01T06:16:03;23.65;;;11.45;;
57113;SDS011;42994;51.606;9.988;2023-03-01T06:18:30;24.73;;;12.35;;
57113;SDS011;42994;51.606;9.988;2023-03-01T06:20:57;26.33;;;12.85;;
57113;SDS011;42994;51.606;9.988;2023-03-01T06:23:24;26.17;;;12.00;;
57113;SDS011;42994;51.606;9.988;2023-03-01T06:25:52;27.17;;;12.68;;
57113;SDS011;42994;51.606;9.988;2023-03-01T06:28:19;27.25;;;12.45;;
57113;SDS011;42994;51.606;9.988;2023-03-01T06:30:46;25.05;;;10.88;;
57113;SDS011;42994;51.606;9.988;2023-03-01T06:33:13;20.17;;;11.57;;
57113;SDS011;42994;51.606;9.988;2023-03-01T06:35:39;18.70;;;9.52;;
57113;SDS011;42994;51.606;9.988;2023-03-01T06:38:06;23.73;;;11.65;;
57113;SDS011;42994;51.606;9.988;2023-03-01T06:40:33;18.60;;;10.02;;
57113;SDS011;42994;51.606;9.988;2023-03-01T06:43:02;26.83;;;11.43;;
57113;SDS011;42994;51.606;9.988;2023-03-01T06:45:28;22.80;;;10.38;;
57113;SDS011;42994;51.606;9.988;2023-03-01T06:48:01;17.25;;;9.55;;
57113;SDS011;42994;51.606;9.988;2023-03-01T06:50:29;23.83;;;10.88;;
57113;SDS011;42994;51.606;9.988;2023-03-01T06:52:56;27.25;;;11.30;;
57113;SDS011;42994;51.606;9.988;2023-03-01T06:55:23;18.35;;;10.43;;
57113;SDS011;42994;51.606;9.988;2023-03-01T06:57:53;18.15;;;10.13;;
57113;SDS011;42994;51.606;9.988;2023-03-01T07:00:22;20.42;;;10.43;;
57113;SDS011;42994;51.606;9.988;2023-03-01T07:02:50;21.70;;;11.50;;
57113;SDS011;42994;51.606;9.988;2023-03-01T07:05:16;19.73;;;10.52;;
57113;SDS011;42994;51.606;9.988;2023-03-01T07:07:43;19.00;;;11.10;;
57113;SDS011;42994;51.606;9.988;2023-03-01T07:10:11;18.70;;;11.05;;
57113;SDS011;42994;51.606;9.988;2023-03-01T07:12:37;18.95;;;9.70;;
57113;SDS011;42994;51.606;9.988;2023-03-01T07:15:04;24.85;;;11.30;;
57113;SDS011;42994;51.606;9.988;2023-03-01T07:17:35;19.77;;;9.10;;
57113;SDS011;42994;51.606;9.988;2023-03-01T07:20:02;20.00;;;10.10;;
57113;SDS011;42994;51.606;9.988;2023-03-01T07:22:29;20.48;;;10.45;;
57113;SDS011;42994;51.606;9.988;2023-03-01T07:24:56;20.85;;;11.02;;
57113;SDS011;42994;51.606;9.988;2023-03-01T07:27:23;14.48;;;9.10;;
57113;SDS011;42994;51.606;9.988;2023-03-01T07:29:50;17.17;;;9.82;;
57113;SDS011;42994;51.606;9.988;2023-03-01T07:32:16;19.13;;;10.55;;
57113;SDS011;42994;51.606;9.988;2023-03-01T07:34:44;22.77;;;11.25;;
57113;SDS011;42994;51.606;9.988;2023-03-01T07:37:11;25.80;;;13.85;;
57113;SDS011;42994;51.606;9.988;2023-03-01T07:39:37;32.17;;;16.48;;
57113;SDS011;42994;51.606;9.988;2023-03-01T07:42:04;46.53;;;18.63;;
57113;SDS011;42994;51.606;9.988;2023-03-01T07:44:32;45.55;;;19.60;;
57113;SDS011;42994;51.606;9.988;2023-03-01T07:46:59;47.70;;;22.05;;
57113;SDS011;42994;51.606;9.988;2023-03-01T07:49:26;60.70;;;21.95;;
57113;SDS011;42994;51.606;9.988;2023-03-01T07:51:54;56.30;;;22.48;;
57113;SDS011;42994;51.606;9.988;2023-03-01T07:54:21;58.80;;;23.15;;
57113;SDS011;42994;51.606;9.988;2023-03-01T07:56:48;46.38;;;19.50;;
57113;SDS011;42994;51.606;9.988;2023-03-01T07:59:14;39.15;;;18.92;;
57113;SDS011;42994;51.606;9.988;2023-03-01T08:01:41;38.85;;;18.95;;
57113;SDS011;42994;51.606;9.988;2023-03-01T08:04:08;28.75;;;14.32;;
57113;SDS011;42994;51.606;9.988;2023-03-01T08:06:35;24.25;;;12.18;;
57113;SDS011;42994;51.606;9.988;2023-03-01T08:09:03;23.42;;;12.27;;
57113;SDS011;42994;51.606;9.988;2023-03-01T08:11:30;23.92;;;12.90;;
57113;SDS011;42994;51.606;9.988;2023-03-01T08:13:57;24.08;;;13.18;;
57113;SDS011;42994;51.606;9.988;2023-03-01T08:16:23;26.65;;;12.82;;
57113;SDS011;42994;51.606;9.988;2023-03-01T08:18:50;27.92;;;12.75;;
57113;SDS011;42994;51.606;9.988;2023-03-01T08:21:17;26.27;;;12.25;;
57113;SDS011;42994;51.606;9.988;2023-03-01T08:23:44;28.45;;;12.73;;
57113;SDS011;42994;51.606;9.988;2023-03-01T08:26:14;25.08;;;10.35;;
57113;SDS011;42994;51.606;9.988;2023-03-01T08:28:42;20.70;;;10.05;;
57113;SDS011;42994;51.606;9.988;2023-03-01T08:31:16;20.27;;;12.20;;
57113;SDS011;42994;51.606;9.988;2023-03-01T08:33:45;27.92;;;12.27;;
57113;SDS011;42994;51.606;9.988;2023-03-01T08:36:17;26.83;;;12.18;;
57113;SDS011;42994;51.606;9.988;2023-03-01T08:38:44;24.10;;;10.98;;
57113;SDS011;42994;51.606;9.988;2023-03-01T08:41:12;18.48;;;9.80;;
57113;SDS011;42994;51.606;9.988;2023-03-01T08:43:39;21.92;;;9.75;;
57113;SDS011;42994;51.606;9.988;2023-03-01T08:46:06;18.08;;;9.30;;
57113;SDS011;42994;51.606;9.988;2023-03-01T08:48:33;14.75;;;8.73;;
57113;SDS011;42994;51.606;9.988;2023-03-01T08:51:06;23.30;;;9.70;;
57113;SDS011;42994;51.606;9.988;2023-03-01T08:53:33;19.73;;;8.85;;
57113;SDS011;42994;51.606;9.988;2023-03-01T08:56:00;18.15;;;8.35;;
57113;SDS011;42994;51.606;9.988;2023-03-01T08:58:28;20.55;;;8.90;;
57113;SDS011;42994;51.606;9.988;2023-03-01T09:00:55;15.48;;;8.63;;
57113;SDS011;42994;51.606;9.988;2023-03-01T09:03:22;16.23;;;8.73;;
57113;SDS011;42994;51.606;9.988;2023-03-01T09:05:49;15.55;;;8.82;;
57113;SDS011;42994;51.606;9.988;2023-03-01T09:08:16;16.50;;;9.05;;
57113;SDS011;42994;51.606;9.988;2023-03-01T09:10:43;16.77;;;9.18;;
57113;SDS011;42994;51.606;9.988;2023-03-01T09:13:10;19.85;;;8.88;;
57113;SDS011;42994;51.606;9.988;2023-03-01T09:15:39;16.95;;;7.55;;
57113;SDS011;42994;51.606;9.988;2023-03-01T09:18:05;16.65;;;8.70;;
57113;SDS011;42994;51.606;9.988;2023-03-01T09:20:32;14.07;;;7.53;;
57113;SDS011;42994;51.606;9.988;2023-03-01T09:22:59;12.68;;;7.38;;
57113;SDS011;42994;51.606;9.988;2023-03-01T09:25:25;21.00;;;7.55;;
57113;SDS011;42994;51.606;9.988;2023-03-01T09:27:53;14.73;;;7.68;;
57113;SDS011;42994;51.606;9.988;2023-03-01T09:30:20;13.13;;;7.85;;
57113;SDS011;42994;51.606;9.988;2023-03-01T09:32:49;15.35;;;7.53;;
57113;SDS011;42994;51.606;9.988;2023-03-01T09:35:15;12.43;;;7.43;;
57113;SDS011;42994;51.606;9.988;2023-03-01T09:37:42;16.80;;;7.05;;
57113;SDS011;42994;51.606;9.988;2023-03-01T09:40:11;18.35;;;8.05;;
57113;SDS011;42994;51.606;9.988;2023-03-01T09:42:45;16.35;;;7.43;;
57113;SDS011;42994;51.606;9.988;2023-03-01T09:45:17;12.35;;;6.93;;
57113;SDS011;42994;51.606;9.988;2023-03-01T09:47:52;10.40;;;6.13;;
57113;SDS011;42994;51.606;9.988;2023-03-01T09:50:20;14.45;;;6.47;;
57113;SDS011;42994;51.606;9.988;2023-03-01T09:52:50;11.25;;;7.63;;
57113;SDS011;42994;51.606;9.988;2023-03-01T09:55:22;14.25;;;7.63;;
57113;SDS011;42994;51.606;9.988;2023-03-01T09:57:55;13.57;;;7.10;;
57113;SDS011;42994;51.606;9.988;2023-03-01T10:03:02;12.18;;;7.43;;
57113;SDS011;42994;51.606;9.988;2023-03-01T10:05:40;12.50;;;7.18;;
57113;SDS011;42994;51.606;9.988;2023-03-01T10:08:23;13.05;;;7.43;;
57113;SDS011;42994;51.606;9.988;2023-03-01T10:10:57;12.65;;;7.60;;
57113;SDS011;42994;51.606;9.988;2023-03-01T10:13:26;13.63;;;8.05;;
57113;SDS011;42994;51.606;9.988;2023-03-01T10:15:59;17.65;;;8.32;;
57113;SDS011;42994;51.606;9.988;2023-03-01T10:18:31;14.10;;;8.23;;
57113;SDS011;42994;51.606;9.988;2023-03-01T10:26:06;17.48;;;8.18;;
57113;SDS011;42994;51.606;9.988;2023-03-01T10:28:44;14.93;;;8.65;;
57113;SDS011;42994;51.606;9.988;2023-03-01T10:31:22;14.98;;;9.45;;
57113;SDS011;42994;51.606;9.988;2023-03-01T10:33:54;14.88;;;7.35;;
57113;SDS011;42994;51.606;9.988;2023-03-01T10:36:22;14.30;;;7.60;;
57113;SDS011;42994;51.606;9.988;2023-03-01T10:38:50;14.35;;;8.27;;
57113;SDS011;42994;51.606;9.988;2023-03-01T10:41:19;13.00;;;8.35;;
57113;SDS011;42994;51.606;9.988;2023-03-01T10:43:49;13.32;;;7.90;;
57113;SDS011;42994;51.606;9.988;2023-03-01T10:46:26;13.73;;;8.60;;
57113;SDS011;42994;51.606;9.988;2023-03-01T10:49:07;12.98;;;8.02;;
57113;SDS011;42994;51.606;9.988;2023-03-01T10:51:40;12.40;;;7.18;;
57113;SDS011;42994;51.606;9.988;2023-03-01T10:54:14;11.50;;;7.53;;
57113;SDS011;42994;51.606;9.988;2023-03-01T10:56:47;15.05;;;7.15;;
57113;SDS011;42994;51.606;9.988;2023-03-01T10:59:21;18.17;;;7.88;;
57113;SDS011;42994;51.606;9.988;2023-03-01T11:02:01;11.93;;;7.80;;
57113;SDS011;42994;51.606;9.988;2023-03-01T11:04:32;14.65;;;7.85;;
57113;SDS011;42994;51.606;9.988;2023-03-01T11:06:59;15.48;;;7.57;;
57113;SDS011;42994;51.606;9.988;2023-03-01T11:09:30;13.85;;;7.53;;
57113;SDS011;42994;51.606;9.988;2023-03-01T11:12:03;14.07;;;7.22;;
57113;SDS011;42994;51.606;9.988;2023-03-01T11:14:45;12.30;;;7.22;;
57113;SDS011;42994;51.606;9.988;2023-03-01T11:17:14;12.40;;;7.32;;
57113;SDS011;42994;51.606;9.988;2023-03-01T11:19:45;13.93;;;8.38;;
57113;SDS011;42994;51.606;9.988;2023-03-01T11:22:26;15.40;;;7.15;;
57113;SDS011;42994;51.606;9.988;2023-03-01T11:24:54;13.18;;;8.30;;
57113;SDS011;42994;51.606;9.988;2023-03-01T11:27:24;12.27;;;7.60;;
57113;SDS011;42994;51.606;9.988;2023-03-01T11:29:52;18.38;;;7.55;;
57113;SDS011;42994;51.606;9.988;2023-03-01T11:32:23;13.55;;;7.35;;
57113;SDS011;42994;51.606;9.988;2023-03-01T11:34:55;12.02;;;6.85;;
57113;SDS011;42994;51.606;9.988;2023-03-01T11:37:28;15.85;;;8.45;;
57113;SDS011;42994;51.606;9.988;2023-03-01T11:40:03;13.80;;;8.23;;
57113;SDS011;42994;51.606;9.988;2023-03-01T11:42:40;11.10;;;7.00;;
57113;SDS011;42994;51.606;9.988;2023-03-01T11:45:14;13.60;;;7.95;;
57113;SDS011;42994;51.606;9.988;2023-03-01T11:47:48;12.35;;;7.25;;
57113;SDS011;42994;51.606;9.988;2023-03-01T11:50:30;12.20;;;7.70;;
57113;SDS011;42994;51.606;9.988;2023-03-01T11:56:05;13.90;;;7.53;;
57113;SDS011;42994;51.606;9.988;2023-03-01T11:58:46;14.43;;;8.10;;
57113;SDS011;42994;51.606;9.988;2023-03-01T12:01:31;16.25;;;7.95;;
57113;SDS011;42994;51.606;9.988;2023-03-01T12:04:17;17.35;;;8.10;;
57113;SDS011;42994;51.606;9.988;2023-03-01T12:07:04;15.32;;;8.20;;
57113;SDS011;42994;51.606;9.988;2023-03-01T12:09:44;11.27;;;7.45;;
57113;SDS011;42994;51.606;9.988;2023-03-01T12:12:27;14.68;;;7.72;;
57113;SDS011;42994;51.606;9.988;2023-03-01T12:15:19;13.15;;;7.25;;
57113;SDS011;42994;51.606;9.988;2023-03-01T12:17:57;11.95;;;7.13;;
57113;SDS011;42994;51.606;9.988;2023-03-01T12:20:36;9.73;;;7.40;;
57113;SDS011;42994;51.606;9.988;2023-03-01T12:23:20;15.70;;;7.90;;
57113;SDS011;42994;51.606;9.988;2023-03-01T12:25:58;13.02;;;7.68;;
57113;SDS011;42994;51.606;9.988;2023-03-01T12:28:36;11.40;;;7.13;;
57113;SDS011;42994;51.606;9.988;2023-03-01T12:31:16;12.23;;;6.57;;
57113;SDS011;42994;51.606;9.988;2023-03-01T12:34:00;11.55;;;5.78;;
57113;SDS011;42994;51.606;9.988;2023-03-01T12:36:38;16.48;;;7.22;;
57113;SDS011;42994;51.606;9.988;2023-03-01T12:39:30;9.45;;;5.38;;
57113;SDS011;42994;51.606;9.988;2023-03-01T12:42:10;13.57;;;6.35;;
57113;SDS011;42994;51.606;9.988;2023-03-01T12:44:54;14.88;;;7.40;;
57113;SDS011;42994;51.606;9.988;2023-03-01T12:47:44;12.57;;;5.85;;
57113;SDS011;42994;51.606;9.988;2023-03-01T12:50:35;9.18;;;5.40;;
57113;SDS011;42994;51.606;9.988;2023-03-01T12:53:07;10.48;;;6.80;;
57113;SDS011;42994;51.606;9.988;2023-03-01T12:55:49;11.38;;;6.07;;
57113;SDS011;42994;51.606;9.988;2023-03-01T12:58:20;12.55;;;5.88;;
57113;SDS011;42994;51.606;9.988;2023-03-01T13:00:53;10.02;;;5.82;;
57113;SDS011;42994;51.606;9.988;2023-03-01T13:03:31;9.48;;;5.93;;
57113;SDS011;42994;51.606;9.988;2023-03-01T13:06:11;10.90;;;6.43;;
57113;SDS011;42994;51.606;9.988;2023-03-01T13:08:43;12.35;;;6.13;;
57113;SDS011;42994;51.606;9.988;2023-03-01T13:11:18;9.73;;;5.85;;
57113;SDS011;42994;51.606;9.988;2023-03-01T13:13:47;12.57;;;5.63;;
57113;SDS011;42994;51.606;9.988;2023-03-01T13:16:20;13.80;;;5.93;;
57113;SDS011;42994;51.606;9.988;2023-03-01T13:19:08;7.60;;;5.68;;
57113;SDS011;42994;51.606;9.988;2023-03-01T13:21:39;8.63;;;6.15;;
57113;SDS011;42994;51.606;9.988;2023-03-01T13:27:09;12.88;;;5.60;;
57113;SDS011;42994;51.606;9.988;2023-03-01T13:29:51;9.60;;;5.30;;
57113;SDS011;42994;51.606;9.988;2023-03-01T13:32:25;7.63;;;5.07;;
57113;SDS011;42994;51.606;9.988;2023-03-01T13:34:55;8.85;;;6.00;;
57113;SDS011;42994;51.606;9.988;2023-03-01T13:37:27;8.75;;;5.38;;
57113;SDS011;42994;51.606;9.988;2023-03-01T13:39:56;8.70;;;5.45;;
57113;SDS011;42994;51.606;9.988;2023-03-01T13:42:35;6.35;;;5.07;;
57113;SDS011;42994;51.606;9.988;2023-03-01T13:45:05;9.98;;;4.97;;
57113;SDS011;42994;51.606;9.988;2023-03-01T13:47:41;8.13;;;5.18;;
57113;SDS011;42994;51.606;9.988;2023-03-01T13:50:16;10.45;;;4.90;;
57113;SDS011;42994;51.606;9.988;2023-03-01T13:52:48;8.43;;;5.07;;
57113;SDS011;42994;51.606;9.988;2023-03-01T13:55:19;8.50;;;5.70;;
57113;SDS011;42994;51.606;9.988;2023-03-01T13:57:51;11.75;;;6.35;;
57113;SDS011;42994;51.606;9.988;2023-03-01T14:00:25;8.18;;;5.10;;
57113;SDS011;42994;51.606;9.988;2023-03-01T14:03:03;9.38;;;5.70;;
57113;SDS011;42994;51.606;9.988;2023-03-01T14:05:38;8.25;;;5.10;;
57113;SDS011;42994;51.606;9.988;2023-03-01T14:08:18;10.48;;;5.60;;
57113;SDS011;42994;51.606;9.988;2023-03-01T14:10:51;11.13;;;5.20;;
57113;SDS011;42994;51.606;9.988;2023-03-01T14:13:51;7.55;;;4.95;;
57113;SDS011;42994;51.606;9.988;2023-03-01T14:16:30;11.00;;;5.43;;
57113;SDS011;42994;51.606;9.988;2023-03-01T14:19:05;10.77;;;5.07;;
57113;SDS011;42994;51.606;9.988;2023-03-01T14:21:41;7.53;;;5.63;;
57113;SDS011;42994;51.606;9.988;2023-03-01T14:24:14;7.45;;;4.97;;
57113;SDS011;42994;51.606;9.988;2023-03-01T14:26:43;11.50;;;6.05;;
57113;SDS011;42994;51.606;9.988;2023-03-01T14:29:24;11.13;;;5.80;;
57113;SDS011;42994;51.606;9.988;2023-03-01T14:31:51;8.80;;;5.65;;
57113;SDS011;42994;51.606;9.988;2023-03-01T14:34:19;10.55;;;5.50;;
57113;SDS011;42994;51.606;9.988;2023-03-01T14:36:46;11.10;;;6.45;;
57113;SDS011;42994;51.606;9.988;2023-03-01T14:39:17;17.52;;;6.90;;
57113;SDS011;42994;51.606;9.988;2023-03-01T14:41:46;9.05;;;6.20;;
57113;SDS011;42994;51.606;9.988;2023-03-01T14:44:14;9.93;;;5.45;;
57113;SDS011;42994;51.606;9.988;2023-03-01T14:46:51;12.68;;;5.78;;
57113;SDS011;42994;51.606;9.988;2023-03-01T14:49:20;9.93;;;6.13;;
57113;SDS011;42994;51.606;9.988;2023-03-01T14:51:49;11.73;;;6.20;;
57113;SDS011;42994;51.606;9.988;2023-03-01T14:54:20;9.98;;;6.35;;
57113;SDS011;42994;51.606;9.988;2023-03-01T14:56:51;12.57;;;5.67;;
57113;SDS011;42994;51.606;9.988;2023-03-01T14:59:19;10.55;;;6.43;;
57113;SDS011;42994;51.606;9.988;2023-03-01T15:01:49;14.02;;;7.43;;
57113;SDS011;42994;51.606;9.988;2023-03-01T15:04:17;12.48;;;6.90;;